Time;durP1;ratioP1;P1;durP2;ratioP2;P2;SDS_P1;SDS_P2;PMS_P1;PMS_P2;Temp;Humidity;BMP_temperature;BMP_pressure;BME280_temperature;BME280_humidity;BME280_pressure;Samples;Min_cycle;Max_cycle;Signal;HPM_P1;HPM_P2
2021/10/30 00:00:34;;;;;;;81.80;35.00;;;;;;;8.34;68.32;100854.90;27213;1216;3048833;-72
2021/10/30 00:03:04;;;;;;;84.40;34.40;;;;;;;8.18;68.80;100853.08;27237;1210;3025953;-73
2021/10/30 00:05:33;;;;;;;82.80;36.10;;;;;;;8.02;69.11;100858.06;27292;1215;3026460;-71
2021/10/30 00:08:02;;;;;;;77.00;36.50;;;;;;;7.85;69.55;100862.02;27224;1215;3049224;-68
2021/10/30 00:10:51;;;;;;;75.30;34.80;;;;;;;7.70;70.02;100864.84;27245;1215;3053072;-71
2021/10/30 00:13:20;;;;;;;86.30;37.30;;;;;;;7.56;70.56;100864.53;27221;1215;3026029;-67
2021/10/30 00:15:51;;;;;;;80.30;36.70;;;;;;;7.48;70.71;100865.45;27215;1215;3052507;-68
2021/10/30 00:18:20;;;;;;;70.40;29.10;;;;;;;7.40;71.10;100858.83;27200;1215;3027155;-70
2021/10/30 00:20:49;;;;;;;83.60;34.00;;;;;;;7.95;70.28;100859.30;27221;1215;3028081;-68
2021/10/30 00:23:18;;;;;;;70.60;32.70;;;;;;;8.50;68.69;100852.00;27219;1215;3026012;-69
2021/10/30 00:25:47;;;;;;;85.90;36.60;;;;;;;8.65;67.56;100852.44;27268;1215;3051039;-72
2021/10/30 00:28:16;;;;;;;87.30;36.90;;;;;;;8.51;67.67;100850.23;27255;1215;3030417;-69
2021/10/30 00:30:45;;;;;;;89.50;38.00;;;;;;;8.34;67.85;100853.86;27229;1215;3048750;-77
2021/10/30 00:33:14;;;;;;;78.60;35.60;;;;;;;8.09;67.98;100855.09;27239;1215;3026597;-70
2021/10/30 00:35:43;;;;;;;73.20;35.60;;;;;;;7.91;68.39;100857.66;27268;1215;3026008;-68
2021/10/30 00:38:12;;;;;;;76.60;35.00;;;;;;;7.80;68.78;100857.29;27230;1215;3025882;-75
2021/10/30 00:40:41;;;;;;;80.80;36.30;;;;;;;7.69;69.03;100858.78;27253;1215;3052535;-72
2021/10/30 00:43:10;;;;;;;79.10;33.50;;;;;;;7.59;69.02;100861.65;27231;1215;3026529;-75
2021/10/30 00:45:39;;;;;;;79.80;35.70;;;;;;;7.48;69.41;100863.88;27229;1215;3047559;-68
2021/10/30 00:48:08;;;;;;;77.40;33.80;;;;;;;7.37;69.86;100866.56;27268;1215;3027966;-70
2021/10/30 00:50:36;;;;;;;49.40;25.20;;;;;;;7.31;70.01;100864.11;27276;1208;3058282;-71
2021/10/30 00:53:05;;;;;;;56.40;27.80;;;;;;;7.88;69.49;100864.02;27238;1215;3025800;-75
2021/10/30 00:55:36;;;;;;;55.20;25.60;;;;;;;8.51;68.11;100857.73;27296;1209;3053746;-69
2021/10/30 00:58:05;;;;;;;62.50;31.20;;;;;;;8.57;66.92;100853.70;27230;1218;3025867;-72
2021/10/30 01:00:34;;;;;;;63.10;28.50;;;;;;;8.46;67.37;100857.01;27228;1215;3026684;-69
2021/10/30 01:03:03;;;;;;;64.80;31.30;;;;;;;8.31;67.65;100861.27;27256;1215;3051462;-68
2021/10/30 01:05:33;;;;;;;70.20;30.90;;;;;;;8.16;67.73;100859.61;27239;1215;3028953;-73
2021/10/30 01:08:02;;;;;;;70.80;30.30;;;;;;;8.01;67.86;100865.09;27253;1215;3051534;-70
2021/10/30 01:10:32;;;;;;;57.70;29.30;;;;;;;7.83;68.31;100864.50;27251;1218;3027934;-68
2021/10/30 01:13:00;;;;;;;65.60;30.40;;;;;;;7.69;68.81;100863.14;27232;1215;3027820;-68
2021/10/30 01:15:29;;;;;;;62.20;29.40;;;;;;;7.56;68.92;100858.61;27209;1215;3051101;-66
2021/10/30 01:17:59;;;;;;;67.20;32.50;;;;;;;7.50;69.11;100857.38;27202;1215;3026394;-76
2021/10/30 01:20:27;;;;;;;60.70;31.00;;;;;;;7.45;69.02;100857.30;27240;1215;3027852;-72
2021/10/30 01:23:00;;;;;;;55.70;27.30;;;;;;;7.41;69.20;100857.42;27210;1215;3053728;-69
2021/10/30 01:25:29;;;;;;;70.70;28.00;;;;;;;7.98;68.95;100861.33;27247;1215;3027280;-71
2021/10/30 01:27:59;;;;;;;60.80;28.00;;;;;;;8.55;67.78;100854.83;27207;1215;3026355;-71
2021/10/30 01:30:28;;;;;;;60.30;30.80;;;;;;;8.63;66.75;100851.80;27248;1215;3054108;-71
2021/10/30 01:32:59;;;;;;;64.10;31.60;;;;;;;8.50;66.61;100857.07;27225;1209;3025934;-69
2021/10/30 01:35:33;;;;;;;62.60;32.20;;;;;;;8.36;66.85;100858.88;27268;1215;3026046;-71
2021/10/30 01:38:10;;;;;;;64.10;30.40;;;;;;;8.20;67.02;100861.23;27290;1215;3053336;-70
2021/10/30 01:40:47;;;;;;;68.10;31.90;;;;;;;8.02;67.46;100867.16;27214;1215;3025910;-67
2021/10/30 01:43:17;;;;;;;61.30;31.30;;;;;;;7.83;67.74;100871.13;27229;1218;3052619;-74
2021/10/30 01:45:47;;;;;;;62.70;32.90;;;;;;;7.72;68.09;100870.20;27210;1215;3025872;-70
2021/10/30 01:48:16;;;;;;;74.10;33.70;;;;;;;7.59;68.21;100870.38;27234;1215;3026227;-70
2021/10/30 01:50:45;;;;;;;73.40;33.30;;;;;;;7.41;68.95;100876.41;27243;1215;3052360;-71
2021/10/30 01:53:14;;;;;;;74.10;35.10;;;;;;;7.27;69.24;100879.89;27249;1215;3026966;-71
2021/10/30 01:55:43;;;;;;;63.00;28.90;;;;;;;7.17;69.52;100880.84;27270;1215;3054299;-73
2021/10/30 01:58:12;;;;;;;77.20;31.20;;;;;;;7.69;69.09;100883.03;27181;1215;3026001;-71
2021/10/30 02:00:42;;;;;;;66.00;30.00;;;;;;;8.18;67.29;100875.94;27201;1215;3026304;-70
2021/10/30 02:03:12;;;;;;;59.00;29.90;;;;;;;8.26;66.58;100876.59;27274;1215;3055461;-72
2021/10/30 02:05:41;;;;;;;69.10;30.70;;;;;;;8.12;66.76;100879.60;27250;1215;3026491;-73
2021/10/30 02:08:10;;;;;;;65.60;33.30;;;;;;;7.85;66.17;100881.56;27224;1215;3048343;-72
2021/10/30 02:10:50;;;;;;;67.30;34.60;;;;;;;7.57;66.92;100880.55;27210;1215;3055384;-71
2021/10/30 02:13:19;;;;;;;72.80;35.20;;;;;;;7.36;67.14;100881.94;27202;1215;3025920;-69
2021/10/30 02:15:50;;;;;;;64.40;32.40;;;;;;;7.22;68.11;100885.08;27219;1215;3052664;-70
2021/10/30 02:18:22;;;;;;;66.60;30.70;;;;;;;7.09;68.66;100879.97;27227;1215;3026362;-70
2021/10/30 02:20:51;;;;;;;64.50;31.90;;;;;;;7.05;68.39;100881.13;27213;1215;3026488;-72
2021/10/30 02:23:20;;;;;;;65.70;30.90;;;;;;;7.01;68.53;100879.45;27235;1215;3026342;-73
2021/10/30 02:25:50;;;;;;;63.70;31.40;;;;;;;6.96;68.32;100880.98;27225;1215;3054542;-72
2021/10/30 02:28:19;;;;;;;72.80;32.20;;;;;;;6.89;68.58;100880.80;27264;1215;3025741;-68
2021/10/30 02:30:48;;;;;;;50.50;25.40;;;;;;;6.81;69.37;100880.98;27232;1215;3026045;-67
2021/10/30 02:33:17;;;;;;;61.20;26.10;;;;;;;7.37;68.91;100883.30;27214;1215;3026148;-72
2021/10/30 02:35:46;;;;;;;46.50;25.10;;;;;;;8.03;67.66;100884.40;27236;1215;3053276;-72
2021/10/30 02:38:15;;;;;;;57.10;28.60;;;;;;;8.19;67.15;100880.80;27238;1210;3026357;-74
2021/10/30 02:40:44;;;;;;;55.70;30.00;;;;;;;8.10;67.08;100884.35;27231;1215;3050954;-72
2021/10/30 02:43:13;;;;;;;63.80;33.50;;;;;;;7.96;66.79;100885.30;27229;1215;3026238;-70
2021/10/30 02:45:45;;;;;;;71.60;31.90;;;;;;;7.78;67.02;100888.38;27231;1215;3051893;-72
2021/10/30 02:48:14;;;;;;;66.40;33.10;;;;;;;7.64;67.26;100893.45;27265;1209;3025541;-73
2021/10/30 02:50:43;;;;;;;65.80;33.90;;;;;;;7.52;67.57;100896.02;27229;1215;3059018;-72
2021/10/30 02:53:12;;;;;;;60.10;31.20;;;;;;;7.41;67.79;100899.27;27245;1215;3027879;-72
2021/10/30 02:55:41;;;;;;;68.30;31.50;;;;;;;7.31;68.12;100902.63;27256;1215;3053797;-71
2021/10/30 02:58:10;;;;;;;70.20;33.50;;;;;;;7.19;68.59;100907.45;27273;1215;3026219;-72
2021/10/30 03:00:39;;;;;;;68.90;32.60;;;;;;;7.11;68.52;100909.73;27225;1215;3051352;-72
2021/10/30 03:03:08;;;;;;;71.50;33.10;;;;;;;7.06;68.79;100915.41;27209;1215;3026378;-73
2021/10/30 03:05:37;;;;;;;64.50;26.00;;;;;;;7.01;69.09;100918.67;27253;1215;3028960;-73
2021/10/30 03:08:06;;;;;;;56.60;27.90;;;;;;;7.56;69.07;100918.23;27220;1215;3054226;-71
2021/10/30 03:10:35;;;;;;;62.90;27.80;;;;;;;8.17;67.63;100918.20;27236;1215;3026322;-72
2021/10/30 03:13:04;;;;;;;66.00;30.50;;;;;;;8.27;67.21;100916.90;27241;1215;3049804;-71
2021/10/30 03:15:33;;;;;;;62.60;28.40;;;;;;;8.12;67.15;100915.20;27253;1215;3025962;-74
2021/10/30 03:18:02;;;;;;;65.50;30.40;;;;;;;7.95;67.19;100916.55;27202;1215;3069769;-73
2021/10/30 03:20:31;;;;;;;63.50;31.70;;;;;;;7.72;67.22;100913.64;27254;1215;3026960;-71
2021/10/30 03:23:00;;;;;;;63.40;30.80;;;;;;;7.48;67.60;100912.16;27272;1215;3052949;-72
2021/10/30 03:25:30;;;;;;;69.50;33.30;;;;;;;7.26;67.80;100913.91;27244;1215;3025916;-71
2021/10/30 03:27:59;;;;;;;54.60;29.40;;;;;;;7.10;67.78;100911.66;27215;1215;3051176;-72
2021/10/30 03:30:28;;;;;;;61.50;30.40;;;;;;;6.97;68.39;100914.58;27275;1215;3029287;-69
2021/10/30 03:32:57;;;;;;;62.90;32.80;;;;;;;6.90;68.40;100909.86;27263;1215;3051792;-73
2021/10/30 03:35:25;;;;;;;55.50;30.70;;;;;;;6.75;68.23;100909.14;27247;1215;3026571;-71
2021/10/30 03:37:54;;;;;;;62.90;32.10;;;;;;;6.64;68.74;100911.64;27267;1215;3057796;-72
2021/10/30 03:40:23;;;;;;;57.10;31.00;;;;;;;6.57;68.85;100909.69;27234;1215;3026445;-68
2021/10/30 03:42:52;;;;;;;55.60;25.80;;;;;;;6.54;69.19;100918.81;27255;1215;3052206;-70
2021/10/30 03:45:21;;;;;;;55.60;26.80;;;;;;;7.06;68.78;100920.80;27264;1215;3026301;-73
2021/10/30 03:47:50;;;;;;;53.60;25.80;;;;;;;7.68;67.72;100914.95;27280;1215;3053322;-73
2021/10/30 03:50:19;;;;;;;56.70;28.70;;;;;;;7.81;66.23;100917.79;27233;1215;3028241;-72
2021/10/30 03:52:48;;;;;;;58.80;29.90;;;;;;;7.66;66.02;100919.73;27268;1215;3026403;-73
2021/10/30 03:55:17;;;;;;;60.00;31.70;;;;;;;7.48;66.42;100924.19;27254;1209;3054075;-71
2021/10/30 03:57:46;;;;;;;66.10;31.80;;;;;;;7.23;66.82;100926.16;27221;1215;3025929;-69
2021/10/30 04:00:16;;;;;;;62.40;31.40;;;;;;;6.96;66.97;100928.17;27267;1215;3051691;-72
2021/10/30 04:02:47;;;;;;;55.20;30.90;;;;;;;6.78;67.14;100929.45;27228;1215;3027269;-71
2021/10/30 04:05:17;;;;;;;61.10;32.90;;;;;;;6.64;67.48;100929.21;27227;1215;3026807;-71
2021/10/30 04:07:46;;;;;;;58.70;31.40;;;;;;;6.56;67.28;100927.64;27252;1215;3051983;-73
2021/10/30 04:10:15;;;;;;;58.50;30.30;;;;;;;6.48;67.66;100929.02;27230;1215;3027499;-75
2021/10/30 04:12:56;;;;;;;57.60;31.20;;;;;;;6.38;68.60;100931.31;27256;1215;3053654;-71
2021/10/30 04:15:25;;;;;;;60.90;32.20;;;;;;;6.31;68.30;100937.02;27246;1215;3026331;-70
2021/10/30 04:17:54;;;;;;;56.00;32.40;;;;;;;6.24;68.24;100940.63;27261;1215;3053152;-72
2021/10/30 04:20:23;;;;;;;60.70;32.80;;;;;;;6.11;67.78;100939.84;27244;1215;3026451;-74
2021/10/30 04:22:52;;;;;;;59.40;32.80;;;;;;;6.00;68.32;100940.55;27246;1215;3047176;-68
2021/10/30 04:25:20;;;;;;;54.80;26.30;;;;;;;5.91;68.68;100941.55;27283;1215;3028419;-73
2021/10/30 04:27:49;;;;;;;52.10;26.20;;;;;;;6.42;68.92;100948.46;27224;1215;3070451;-70
2021/10/30 04:30:18;;;;;;;47.90;25.90;;;;;;;7.04;67.32;100944.21;27248;1215;3028103;-70
2021/10/30 04:32:49;;;;;;;51.30;29.30;;;;;;;7.15;66.18;100946.04;27241;1215;3054150;-70
2021/10/30 04:35:18;;;;;;;52.90;26.30;;;;;;;7.02;66.25;100945.99;27234;1215;3027506;-69
2021/10/30 04:37:47;;;;;;;56.40;30.60;;;;;;;6.85;67.01;100952.13;27292;1209;3026329;-70
2021/10/30 04:40:17;;;;;;;57.30;28.80;;;;;;;6.70;67.54;100949.63;27248;1215;3053389;-70
2021/10/30 04:42:46;;;;;;;60.90;28.60;;;;;;;6.56;67.82;100951.67;27350;1215;3026214;-71
2021/10/30 04:45:15;;;;;;;57.60;30.10;;;;;;;6.44;67.85;100953.83;27239;1215;3029102;-74
2021/10/30 04:47:45;;;;;;;61.00;28.50;;;;;;;6.28;68.30;100952.90;27249;1215;3050447;-74
2021/10/30 04:50:14;;;;;;;55.60;30.60;;;;;;;6.15;68.00;100952.48;27234;1215;3026991;-70
2021/10/30 04:52:44;;;;;;;53.90;29.20;;;;;;;6.06;68.97;100952.98;27244;1215;3026269;-70
2021/10/30 04:55:13;;;;;;;55.30;31.90;;;;;;;5.91;69.38;100955.98;27247;1215;3026664;-73
2021/10/30 04:57:42;;;;;;;55.40;31.30;;;;;;;5.80;69.65;100958.97;27222;1215;3026013;-73
2021/10/30 05:00:12;;;;;;;54.90;30.70;;;;;;;5.79;69.48;100956.02;27262;1215;3028060;-74
2021/10/30 05:02:44;;;;;;;52.90;26.20;;;;;;;5.80;70.26;100957.39;27269;1215;3053889;-70
2021/10/30 05:05:13;;;;;;;51.40;26.30;;;;;;;6.36;69.93;100958.49;27201;1216;3026931;-74
2021/10/30 05:07:42;;;;;;;43.80;25.10;;;;;;;7.00;68.11;100955.61;27234;1215;3047332;-69
2021/10/30 05:10:11;;;;;;;50.30;29.70;;;;;;;7.10;67.65;100959.76;27257;1215;3026009;-73
2021/10/30 05:12:40;;;;;;;58.70;33.00;;;;;;;6.98;67.69;100964.88;27233;1215;3070592;-71
2021/10/30 05:15:09;;;;;;;59.50;37.10;;;;;;;6.76;68.12;100965.35;27220;1215;3026411;-73
2021/10/30 05:17:41;;;;;;;71.90;43.00;;;;;;;6.60;68.98;100973.01;27249;1215;3052380;-73
2021/10/30 05:20:10;;;;;;;63.40;37.60;;;;;;;6.53;69.36;100975.07;27195;1215;3026049;-75
2021/10/30 05:22:40;;;;;;;62.90;38.20;;;;;;;6.45;69.81;100979.23;27273;1215;3027020;-75
2021/10/30 05:25:09;;;;;;;65.10;35.20;;;;;;;6.30;70.59;100983.33;27278;1215;3026170;-73
2021/10/30 05:27:38;;;;;;;60.10;33.60;;;;;;;6.28;70.63;100988.77;27268;1215;3026562;-71
2021/10/30 05:30:07;;;;;;;60.00;29.60;;;;;;;6.25;70.83;100986.91;27232;1215;3048019;-72
2021/10/30 05:32:36;;;;;;;51.70;24.40;;;;;;;6.20;71.63;100987.68;27250;1215;3026653;-70
2021/10/30 05:35:28;;;;;;;47.80;24.30;;;;;;;6.94;70.08;100982.22;27200;1218;3052378;-72
2021/10/30 05:38:24;;;;;;;52.30;27.30;;;;;;;7.47;67.82;100982.97;27242;1216;3058432;-69
2021/10/30 05:40:52;;;;;;;51.50;26.50;;;;;;;7.53;67.77;100984.02;27237;1215;3026292;-74
2021/10/30 05:43:21;;;;;;;57.80;27.80;;;;;;;7.48;67.65;100985.04;27228;1215;3051107;-74
2021/10/30 05:45:50;;;;;;;52.40;27.80;;;;;;;7.35;67.80;100987.23;27206;1215;3026260;-70
2021/10/30 05:48:19;;;;;;;61.90;30.60;;;;;;;7.22;68.02;100990.52;27240;1215;3050390;-71
2021/10/30 05:50:48;;;;;;;55.30;29.50;;;;;;;7.01;69.02;100990.27;27256;1215;3026979;-73
2021/10/30 05:53:17;;;;;;;65.00;28.30;;;;;;;6.90;69.61;100995.73;27245;1215;3050943;-72
2021/10/30 05:55:46;;;;;;;52.60;26.30;;;;;;;6.87;69.96;100999.27;27305;1215;3026022;-67
2021/10/30 05:58:15;;;;;;;51.30;27.50;;;;;;;6.77;70.53;101000.18;27203;1215;3067350;-76
2021/10/30 06:00:44;;;;;;;44.80;21.80;;;;;;;6.69;71.18;101004.88;27265;1215;3026493;-76
2021/10/30 06:03:13;;;;;;;45.10;22.30;;;;;;;7.32;70.08;101000.55;27230;1215;3050338;-71
2021/10/30 06:05:44;;;;;;;41.00;22.40;;;;;;;8.02;67.90;101002.55;27267;1215;3026434;-70
2021/10/30 06:08:13;;;;;;;46.60;22.80;;;;;;;8.17;67.20;101002.69;27209;1215;3026207;-73
2021/10/30 06:10:42;;;;;;;47.10;24.00;;;;;;;8.00;67.12;101003.30;27229;1209;3053117;-70
2021/10/30 06:13:11;;;;;;;51.70;24.20;;;;;;;7.91;67.34;101001.61;27229;1215;3027685;-70
2021/10/30 06:15:41;;;;;;;50.00;24.90;;;;;;;7.75;68.08;101002.16;27250;1215;3055042;-73
2021/10/30 06:18:11;;;;;;;51.30;26.00;;;;;;;7.67;68.93;101008.30;27257;1215;3026176;-71
2021/10/30 06:20:42;;;;;;;46.80;24.00;;;;;;;7.77;68.72;101006.32;27205;1215;3026630;-73
2021/10/30 06:23:13;;;;;;;47.60;23.50;;;;;;;7.84;68.49;101007.02;27238;1219;3026554;-75
2021/10/30 06:25:43;;;;;;;51.30;25.30;;;;;;;7.85;69.11;101012.77;27278;1215;3049568;-72
2021/10/30 06:28:12;;;;;;;50.40;20.00;;;;;;;7.89;68.94;101011.61;27210;1216;3026046;-71
2021/10/30 06:30:41;;;;;;;38.80;19.40;;;;;;;8.53;68.17;101012.40;27264;1212;3027592;-73
2021/10/30 06:33:11;;;;;;;42.80;20.20;;;;;;;9.25;66.48;101002.66;27225;1215;3026321;-74
2021/10/30 06:35:40;;;;;;;49.80;23.80;;;;;;;9.55;65.90;100999.77;27193;1216;3026283;-76
2021/10/30 06:38:09;;;;;;;49.80;23.80;;;;;;;9.55;65.65;101000.34;27218;1215;3026295;-69
2021/10/30 06:40:39;;;;;;;47.60;24.60;;;;;;;9.45;65.83;101003.77;27269;1215;3053631;-75
2021/10/30 06:43:08;;;;;;;49.50;29.20;;;;;;;9.36;67.26;101005.09;27248;1215;3030262;-68
2021/10/30 06:45:40;;;;;;;55.90;31.40;;;;;;;9.37;66.40;101005.94;27272;1218;3026861;-74
2021/10/30 06:48:11;;;;;;;57.20;31.80;;;;;;;9.29;66.79;101006.20;27275;1215;3025705;-70
2021/10/30 06:50:40;;;;;;;55.80;30.80;;;;;;;9.26;67.75;101004.36;27244;1215;3052578;-69
2021/10/30 06:53:09;;;;;;;51.60;28.60;;;;;;;9.26;67.28;101004.73;27209;1215;3028924;-71
2021/10/30 06:55:40;;;;;;;47.20;27.40;;;;;;;9.20;67.79;101007.54;27222;1216;3053351;-71
2021/10/30 06:58:09;;;;;;;54.70;30.00;;;;;;;9.19;68.04;101012.27;27235;1218;3026250;-72
2021/10/30 07:00:38;;;;;;;42.80;23.40;;;;;;;9.24;68.23;101016.85;27255;1215;3026422;-75
2021/10/30 07:03:07;;;;;;;46.00;24.20;;;;;;;9.91;67.04;101013.15;27238;1215;3051562;-75
2021/10/30 07:05:36;;;;;;;44.60;24.60;;;;;;;10.46;65.27;101009.75;27205;1215;3027062;-72
2021/10/30 07:08:06;;;;;;;49.30;27.60;;;;;;;10.75;64.41;101008.16;27242;1215;3026244;-72
2021/10/30 07:10:35;;;;;;;57.70;27.20;;;;;;;10.74;64.17;101007.66;27227;1209;3026070;-70
2021/10/30 07:13:04;;;;;;;48.90;26.10;;;;;;;10.59;64.46;101006.81;27212;1215;3053838;-71
2021/10/30 07:15:33;;;;;;;47.90;27.60;;;;;;;10.48;64.59;101008.09;27233;1215;3026160;-71
2021/10/30 07:18:02;;;;;;;48.30;27.70;;;;;;;10.39;64.99;101009.27;27280;1216;3054214;-71
2021/10/30 07:20:32;;;;;;;61.00;31.80;;;;;;;10.37;65.23;101006.73;27234;1216;3026570;-67
2021/10/30 07:23:01;;;;;;;59.10;31.80;;;;;;;10.43;65.02;101008.98;27202;1209;3027032;-71
2021/10/30 07:25:30;;;;;;;57.20;32.40;;;;;;;10.43;64.93;101010.54;27290;1216;3054423;-70
2021/10/30 07:27:59;;;;;;;58.20;34.00;;;;;;;10.47;64.93;101010.40;27222;1216;3027910;-73
2021/10/30 07:30:29;;;;;;;58.50;33.50;;;;;;;10.49;65.05;101013.12;27307;1216;3050319;-73
2021/10/30 07:32:58;;;;;;;57.70;34.40;;;;;;;10.48;65.42;101009.85;27221;1216;3026106;-74
2021/10/30 07:35:27;;;;;;;69.00;39.50;;;;;;;10.52;65.34;101010.91;27248;1216;3069651;-75
2021/10/30 07:38:00;;;;;;;77.50;40.80;;;;;;;10.56;65.24;101011.48;27200;1217;3028218;-72
2021/10/30 07:40:29;;;;;;;74.20;40.90;;;;;;;10.57;65.16;101011.78;27224;1216;3050129;-72
2021/10/30 07:42:58;;;;;;;81.60;41.90;;;;;;;10.63;65.09;101009.15;27234;1216;3028632;-71
2021/10/30 07:45:28;;;;;;;78.30;42.90;;;;;;;10.69;64.67;101009.41;27235;1216;3054729;-73
2021/10/30 07:47:58;;;;;;;80.80;39.70;;;;;;;10.76;64.62;101007.60;27246;1216;3026054;-71
2021/10/30 07:50:28;;;;;;;75.70;39.40;;;;;;;10.87;64.41;101001.42;27206;1216;3025977;-71
2021/10/30 07:52:58;;;;;;;77.80;41.20;;;;;;;10.95;64.12;101001.64;27234;1216;3026829;-71
2021/10/30 07:55:28;;;;;;;72.80;39.70;;;;;;;10.97;64.26;101003.31;27237;1216;3026059;-74
2021/10/30 07:57:57;;;;;;;63.90;35.80;;;;;;;11.04;64.20;100999.91;27197;1216;3027243;-69
2021/10/30 08:00:26;;;;;;;85.60;38.70;;;;;;;11.10;64.19;101001.96;27270;1216;3029163;-71
2021/10/30 08:02:55;;;;;;;89.30;40.20;;;;;;;11.16;64.04;101001.56;27250;1216;3050178;-72
2021/10/30 08:05:24;;;;;;;77.30;40.30;;;;;;;11.27;63.51;100999.21;27230;1216;3026373;-65
2021/10/30 08:07:54;;;;;;;78.70;39.20;;;;;;;11.34;63.24;100998.42;27244;1216;3047856;-68
2021/10/30 08:10:26;;;;;;;73.00;38.80;;;;;;;11.40;63.25;100998.50;27271;1216;3025915;-70
2021/10/30 08:12:57;;;;;;;73.40;38.70;;;;;;;11.49;62.97;100997.09;27248;1219;3070679;-73
2021/10/30 08:15:26;;;;;;;73.30;38.10;;;;;;;11.63;62.96;100994.98;27253;1216;3025836;-69
2021/10/30 08:17:56;;;;;;;78.40;41.00;;;;;;;11.72;62.54;100993.38;27234;1216;3025916;-66
2021/10/30 08:20:25;;;;;;;72.10;36.40;;;;;;;11.79;62.29;101001.15;27207;1217;3027748;-65
2021/10/30 08:22:53;;;;;;;68.60;35.90;;;;;;;11.90;61.98;101002.27;27241;1216;3026345;-74
2021/10/30 08:25:22;;;;;;;70.10;35.70;;;;;;;12.02;61.84;101000.77;27265;1216;3051475;-71
2021/10/30 08:27:53;;;;;;;70.00;34.60;;;;;;;12.09;61.72;101002.02;27204;1216;3027259;-68
2021/10/30 08:30:23;;;;;;;65.40;34.60;;;;;;;12.18;61.24;101003.07;27272;1219;3047010;-69
2021/10/30 08:32:52;;;;;;;62.80;32.60;;;;;;;12.29;60.78;101002.27;27236;1216;3026673;-68
2021/10/30 08:35:21;;;;;;;66.50;35.10;;;;;;;12.38;60.87;101000.46;27220;1216;3025893;-69
2021/10/30 08:37:49;;;;;;;71.20;35.80;;;;;;;12.45;60.68;100996.98;27260;1216;3048466;-71
2021/10/30 08:40:19;;;;;;;62.30;31.60;;;;;;;12.48;60.68;100994.77;27237;1216;3026026;-68
2021/10/30 08:42:48;;;;;;;58.50;31.10;;;;;;;12.58;60.54;100993.95;27244;1216;3069707;-74
2021/10/30 08:45:18;;;;;;;58.30;28.30;;;;;;;12.63;59.91;100994.29;27248;1209;3025825;-71
2021/10/30 08:47:48;;;;;;;56.50;29.70;;;;;;;12.72;59.73;100995.60;27253;1216;3027402;-72
2021/10/30 08:50:17;;;;;;;49.60;27.00;;;;;;;12.85;59.19;100982.72;27221;1216;3026377;-71
2021/10/30 08:52:45;;;;;;;48.60;25.90;;;;;;;12.93;58.49;100986.21;27192;1219;3049178;-74
2021/10/30 08:55:14;;;;;;;46.10;25.60;;;;;;;13.05;58.42;100986.54;27260;1209;3026145;-71
2021/10/30 08:57:44;;;;;;;42.00;24.00;;;;;;;13.10;57.86;100982.45;27230;1221;3069821;-68
2021/10/30 09:00:21;;;;;;;50.60;24.40;;;;;;;13.18;57.24;100981.00;27228;1209;3025868;-69
2021/10/30 09:02:59;;;;;;;47.20;25.70;;;;;;;13.25;57.38;100981.01;27253;1216;3054118;-70
2021/10/30 09:05:28;;;;;;;43.80;23.40;;;;;;;13.30;56.72;100982.73;27225;1222;3068265;-68
2021/10/30 09:08:01;;;;;;;42.10;22.00;;;;;;;13.39;56.69;100985.65;27253;1218;3026049;-70
2021/10/30 09:10:35;;;;;;;38.50;21.20;;;;;;;13.48;55.75;100979.98;27213;1216;3053752;-73
2021/10/30 09:13:06;;;;;;;39.50;20.00;;;;;;;13.55;54.78;100975.55;27244;1219;3026021;-69
2021/10/30 09:15:36;;;;;;;38.70;21.70;;;;;;;13.60;54.46;100977.60;27219;1216;3029627;-67
2021/10/30 09:18:29;;;;;;;37.50;16.70;;;;;;;13.63;54.07;100976.60;27238;1216;3026329;-72
2021/10/30 09:21:04;;;;;;;32.70;16.50;;;;;;;13.69;52.85;100977.20;27228;1218;3052602;-72
2021/10/30 09:23:38;;;;;;;32.80;17.40;;;;;;;13.74;52.58;100973.60;27213;1216;3053127;-74
2021/10/30 09:26:19;;;;;;;34.30;15.80;;;;;;;13.86;52.10;100971.61;27215;1209;3029430;-68
2021/10/30 09:28:54;;;;;;;30.30;15.80;;;;;;;13.92;51.00;100963.86;27262;1216;3049098;-69
2021/10/30 09:31:24;;;;;;;34.40;14.50;;;;;;;14.03;50.80;100963.86;27256;1216;3053540;-68
2021/10/30 09:33:57;;;;;;;25.30;13.90;;;;;;;14.08;49.88;100962.73;27213;1209;3026060;-69
2021/10/30 09:36:34;;;;;;;30.70;14.70;;;;;;;14.15;49.74;100961.50;27243;1218;3025839;-70
2021/10/30 09:39:08;;;;;;;26.00;11.60;;;;;;;14.23;48.91;100959.80;27225;1216;3049959;-65
2021/10/30 09:41:38;;;;;;;22.70;12.60;;;;;;;14.34;48.68;100960.11;27211;1216;3055266;-68
2021/10/30 09:44:16;;;;;;;28.40;14.30;;;;;;;14.44;48.83;100953.95;27203;1219;3028361;-70
2021/10/30 09:46:46;;;;;;;28.70;15.50;;;;;;;14.56;49.45;100956.50;27197;1219;3071325;-67
2021/10/30 09:49:32;;;;;;;31.90;17.10;;;;;;;14.68;48.99;100954.82;27212;1218;3026180;-63
2021/10/30 09:52:10;;;;;;;38.60;17.60;;;;;;;14.79;48.70;100948.41;27194;1216;3051389;-74
2021/10/30 09:54:41;;;;;;;28.90;14.10;;;;;;;14.86;47.86;100945.93;27254;1216;3071516;-71
2021/10/30 09:57:27;;;;;;;24.40;12.70;;;;;;;14.86;47.23;100945.58;27247;1216;3029512;-71
2021/10/30 09:59:58;;;;;;;27.40;12.90;;;;;;;14.87;46.94;100938.44;27243;1217;3054469;-70
2021/10/30 10:02:28;;;;;;;24.50;12.00;;;;;;;14.95;46.68;100933.60;27215;1218;3027435;-70
2021/10/30 10:04:59;;;;;;;20.30;11.80;;;;;;;14.99;46.58;100938.67;27251;1216;3026230;-67
2021/10/30 10:07:29;;;;;;;22.70;11.80;;;;;;;15.01;46.30;100937.35;27230;1216;3026520;-68
2021/10/30 10:09:58;;;;;;;20.10;10.90;;;;;;;15.04;46.51;100935.74;27242;1219;3026045;-68
2021/10/30 10:12:27;;;;;;;23.00;11.30;;;;;;;15.11;46.21;100932.92;27211;1216;3057859;-71
2021/10/30 10:14:56;;;;;;;21.70;11.80;;;;;;;15.17;46.54;100935.71;27219;1216;3026265;-68
2021/10/30 10:17:25;;;;;;;18.70;11.00;;;;;;;15.30;46.32;100930.24;27219;1219;3051457;-69
2021/10/30 10:20:13;;;;;;;25.10;11.00;;;;;;;15.37;45.43;100928.92;27197;1219;3058363;-65
2021/10/30 10:22:43;;;;;;;23.50;11.30;;;;;;;15.36;45.21;100925.83;27225;1219;3026268;-66
2021/10/30 10:25:28;;;;;;;22.80;10.30;;;;;;;15.34;45.22;100921.16;27220;1216;3027463;-68
2021/10/30 10:28:26;;;;;;;19.80;10.60;;;;;;;15.38;44.70;100924.30;27254;1216;3058386;-72
2021/10/30 10:31:00;;;;;;;22.70;10.70;;;;;;;15.57;44.33;100921.27;27219;1216;3053606;-67
2021/10/30 10:33:30;;;;;;;22.20;10.30;;;;;;;15.57;43.78;100916.10;27255;1216;3052959;-69
2021/10/30 10:36:14;;;;;;;21.60;10.60;;;;;;;15.63;43.55;100915.45;27232;1216;3029108;-68
2021/10/30 10:38:58;;;;;;;19.20;9.60;;;;;;;15.66;43.39;100915.29;27218;1216;3049019;-65
2021/10/30 10:41:36;;;;;;;;;;;;;;;15.70;43.25;100911.16;27254;1216;3052470;-76
2021/10/30 10:44:10;;;;;;;20.10;9.70;;;;;;;15.69;43.17;100911.95;27219;1217;3053400;-68
2021/10/30 10:46:48;;;;;;;;;;;;;;;15.81;42.96;100911.75;27222;1216;3070610;-74
2021/10/30 10:49:19;;;;;;;24.80;10.20;;;;;;;15.78;42.28;100911.39;27227;1216;3048535;-67
2021/10/30 10:51:52;;;;;;;19.50;9.90;;;;;;;15.89;42.07;100907.08;27250;1216;3027378;-67
2021/10/30 10:54:21;;;;;;;19.60;9.60;;;;;;;15.94;41.75;100906.92;27249;1216;3026304;-68
2021/10/30 10:56:57;;;;;;;24.40;10.20;;;;;;;15.98;41.46;100904.96;27235;1217;3028357;-71
2021/10/30 10:59:41;;;;;;;26.80;10.00;;;;;;;15.98;41.43;100906.16;27266;1216;3054390;-66
2021/10/30 11:02:20;;;;;;;;;;;;;;;15.93;41.56;100905.73;27236;1216;3051804;-74
2021/10/30 11:05:07;;;;;;;20.90;8.60;;;;;;;15.93;41.43;100906.45;27255;1216;3058011;-70
2021/10/30 11:07:50;;;;;;;17.90;8.50;;;;;;;16.02;41.22;100905.08;27175;1216;3052276;-70
2021/10/30 11:10:26;;;;;;;22.50;9.00;;;;;;;16.07;41.19;100908.26;27225;1216;3052904;-65
2021/10/30 11:13:02;;;;;;;15.30;8.80;;;;;;;16.16;41.08;100905.59;27251;1216;3053259;-73
2021/10/30 11:15:52;;;;;;;13.40;7.30;;;;;;;16.16;41.01;100903.50;27210;1217;3069411;-72